Terminal Aerodrome Forecast
Issued by NWS Twin Cities, MN

Home | Current Version | Previous Version | Text Only | Print | Product List | Glossary On
Versions: 1 2 3 4 5 6 7 8 9 10 11 12 13 14 15 16 17 18 19 20 21 22 23 24 25 26 27 28 29
000
FTUS43 KMPX 200801 AAA
TAFMSP
TAF AMD
KMSP 200801Z 2008/2112 02010KT 6SM BR VCSH OVC010
      TEMPO 2008/2012 2SM -FZDZSN OVC007
     FM201200 35006KT 6SM BR VCSH OVC012
      TEMPO 2012/2014 3SM -SNPL OVC009
     FM201700 31009KT P6SM OVC015
     FM202000 31009KT P6SM OVC020
     FM210400 30010KT P6SM SCT020=

USA.gov is the U.S. government's official web portal to all federal, state and local government web resources and services.